createdAt,value
2018-11-06T00:00:10.122Z,0
2018-11-06T00:01:10.360Z,0
2018-11-06T00:02:10.081Z,0
2018-11-06T00:03:10.051Z,0
2018-11-06T00:04:10.052Z,0
2018-11-06T00:05:10.033Z,0
2018-11-06T00:06:09.999Z,0
2018-11-06T00:07:09.998Z,0
2018-11-06T00:08:09.710Z,0
2018-11-06T00:09:09.762Z,0
2018-11-06T00:10:09.936Z,0
2018-11-06T00:11:09.391Z,0
2018-11-06T00:12:09.639Z,0
2018-11-06T00:13:09.626Z,0
2018-11-06T00:14:09.867Z,0
2018-11-06T00:15:09.857Z,0
2018-11-06T00:16:09.587Z,0
2018-11-06T00:17:09.813Z,0
2018-11-06T00:18:09.806Z,0
2018-11-06T00:19:09.783Z,0
2018-11-06T00:20:10.038Z,0
2018-11-06T00:21:09.680Z,0
2018-11-06T00:22:09.741Z,0
2018-11-06T00:23:09.716Z,0
2018-11-06T00:24:09.962Z,0
2018-11-06T00:25:09.694Z,0
2018-11-06T00:26:09.928Z,0
2018-11-06T00:27:09.654Z,0
2018-11-06T00:28:09.638Z,0
2018-11-06T00:29:09.879Z,0
2018-11-06T00:30:09.342Z,0
2018-11-06T00:31:09.311Z,0
2018-11-06T00:32:09.579Z,0
2018-11-06T00:33:09.541Z,0
2018-11-06T00:34:09.754Z,0
2018-11-06T00:35:09.245Z,0
2018-11-06T00:36:09.759Z,0
2018-11-06T00:37:09.224Z,0
2018-11-06T00:38:09.188Z,0
2018-11-06T00:39:09.451Z,0
2018-11-06T00:40:09.167Z,0
2018-11-06T00:41:09.405Z,0
2018-11-06T00:42:09.395Z,0
2018-11-06T00:43:09.646Z,0
2018-11-06T00:44:09.365Z,0
2018-11-06T00:45:09.612Z,0
2018-11-06T00:46:09.581Z,0
2018-11-06T00:47:09.297Z,0
2018-11-06T00:48:09.025Z,0
2018-11-06T00:49:08.999Z,0
2018-11-06T00:50:08.996Z,0
2018-11-06T00:51:08.992Z,0
2018-11-06T00:52:09.217Z,0
2018-11-06T00:53:09.198Z,0
2018-11-06T00:54:08.920Z,0
2018-11-06T00:55:09.167Z,0
2018-11-06T00:56:08.887Z,0
2018-11-06T00:57:08.876Z,0
2018-11-06T00:58:09.112Z,0
2018-11-06T00:59:09.204Z,0
2018-11-06T01:00:08.832Z,0
2018-11-06T01:01:08.805Z,0
2018-11-06T01:02:08.792Z,0
2018-11-06T01:03:09.038Z,0
2018-11-06T01:04:08.759Z,0
2018-11-06T01:05:09.315Z,0
2018-11-06T01:06:08.985Z,0
2018-11-06T01:07:08.964Z,0
2018-11-06T01:08:09.207Z,0
2018-11-06T01:09:09.187Z,0
2018-11-06T01:10:08.922Z,0
2018-11-06T01:11:09.247Z,0
2018-11-06T01:12:08.877Z,0
2018-11-06T01:13:08.855Z,0
2018-11-06T01:14:09.122Z,0
2018-11-06T01:15:08.563Z,0
2018-11-06T01:16:08.537Z,0
2018-11-06T01:17:08.524Z,0
2018-11-06T01:18:08.239Z,0
2018-11-06T01:19:09.020Z,0
2018-11-06T01:20:08.745Z,0
2018-11-06T01:21:08.731Z,0
2018-11-06T01:22:08.723Z,0
2018-11-06T01:23:08.436Z,0
2018-11-06T01:24:08.668Z,0
2018-11-06T01:25:08.400Z,0
2018-11-06T01:26:08.628Z,0
2018-11-06T01:27:08.358Z,0
2018-11-06T01:28:08.344Z,0
2018-11-06T01:29:08.331Z,0
2018-11-06T01:30:08.563Z,0
2018-11-06T01:31:08.284Z,0
2018-11-06T01:32:08.549Z,0
2018-11-06T01:33:08.550Z,0
2018-11-06T01:34:08.773Z,0
2018-11-06T01:35:08.758Z,0
2018-11-06T01:36:08.199Z,0
2018-11-06T01:37:08.446Z,0
2018-11-06T01:38:08.701Z,0
2018-11-06T01:39:08.682Z,0
2018-11-06T01:40:08.152Z,0
2018-11-06T01:41:08.374Z,0
2018-11-06T01:42:08.374Z,0
2018-11-06T01:43:08.366Z,0
2018-11-06T01:44:08.074Z,0
2018-11-06T01:45:07.799Z,0
2018-11-06T01:46:08.039Z,0
2018-11-06T01:47:08.036Z,0
2018-11-06T01:48:08.278Z,0
2018-11-06T01:49:07.974Z,0
2018-11-06T01:50:08.483Z,0
2018-11-06T01:51:08.221Z,0
2018-11-06T01:52:07.927Z,0
2018-11-06T01:53:08.434Z,0
2018-11-06T01:54:08.428Z,0
2018-11-06T01:55:07.884Z,0
2018-11-06T01:56:08.119Z,0
2018-11-06T01:57:08.109Z,0
2018-11-06T01:58:08.086Z,0
2018-11-06T01:59:08.351Z,0
2018-11-06T02:00:08.057Z,0
2018-11-06T02:01:08.037Z,0
2018-11-06T02:02:08.287Z,0
2018-11-06T02:03:08.267Z,0
2018-11-06T02:04:07.726Z,0
2018-11-06T02:05:08.226Z,0
2018-11-06T02:06:08.209Z,0
2018-11-06T02:07:07.931Z,0
2018-11-06T02:08:07.914Z,0
2018-11-06T02:09:07.631Z,0
2018-11-06T02:10:07.874Z,0
2018-11-06T02:11:07.597Z,0
2018-11-06T02:12:07.572Z,0
2018-11-06T02:13:07.829Z,0
2018-11-06T02:14:07.807Z,0
2018-11-06T02:15:07.791Z,0
2018-11-06T02:16:07.504Z,0
2018-11-06T02:17:07.764Z,0
2018-11-06T02:18:07.996Z,0
2018-11-06T02:19:07.689Z,0
2018-11-06T02:20:07.700Z,0
2018-11-06T02:21:07.370Z,0
2018-11-06T02:22:07.926Z,0
2018-11-06T02:23:07.671Z,0
2018-11-06T02:24:07.632Z,0
2018-11-06T02:25:07.614Z,0
2018-11-06T02:26:07.585Z,0
2018-11-06T02:27:07.325Z,0
2018-11-06T02:28:07.818Z,0
2018-11-06T02:29:07.537Z,0
2018-11-06T02:30:07.817Z,0
2018-11-06T02:31:07.527Z,0
2018-11-06T02:32:07.486Z,0
2018-11-06T02:33:07.466Z,0
2018-11-06T02:34:06.923Z,0
2018-11-06T02:35:07.166Z,0
2018-11-06T02:36:07.725Z,0
2018-11-06T02:37:07.677Z,0
2018-11-06T02:38:07.388Z,0
2018-11-06T02:39:07.368Z,0
2018-11-06T02:40:07.639Z,0
2018-11-06T02:41:07.092Z,0
2018-11-06T02:42:07.318Z,0
2018-11-06T02:43:07.030Z,0
2018-11-06T02:44:07.276Z,0
2018-11-06T02:45:06.996Z,0
2018-11-06T02:46:07.505Z,0
2018-11-06T02:47:07.489Z,0
2018-11-06T02:48:07.200Z,0
2018-11-06T02:49:07.465Z,0
2018-11-06T02:50:07.454Z,0
2018-11-06T02:51:06.896Z,0
2018-11-06T02:52:07.411Z,0
2018-11-06T02:53:06.966Z,0
2018-11-06T02:54:07.437Z,0
2018-11-06T02:55:07.084Z,0
2018-11-06T02:56:07.527Z,0
2018-11-06T02:57:07.116Z,0
2018-11-06T02:58:07.064Z,0
2018-11-06T02:59:07.067Z,0
2018-11-06T03:00:07.304Z,0
2018-11-06T03:01:06.714Z,0
2018-11-06T03:02:07.153Z,0
2018-11-06T03:03:06.944Z,0
2018-11-06T03:04:07.353Z,0
2018-11-06T03:05:06.910Z,0
2018-11-06T03:06:06.887Z,0
2018-11-06T03:07:06.857Z,0
2018-11-06T03:08:06.842Z,0
2018-11-06T03:09:06.843Z,0
2018-11-06T03:10:06.687Z,0
2018-11-06T03:11:06.538Z,0
2018-11-06T03:12:06.790Z,0
2018-11-06T03:13:07.062Z,0
2018-11-06T03:14:06.532Z,0
2018-11-06T03:15:06.711Z,0
2018-11-06T03:16:07.025Z,0
2018-11-06T03:17:06.721Z,0
2018-11-06T03:18:21.316Z,0
2018-11-06T03:19:06.503Z,0
2018-11-06T03:20:06.815Z,0
2018-11-06T03:21:07.042Z,0
2018-11-06T03:22:06.585Z,0
2018-11-06T03:23:06.580Z,0
2018-11-06T03:24:06.544Z,0
2018-11-06T03:25:06.010Z,0
2018-11-06T03:26:06.266Z,0
2018-11-06T03:27:06.384Z,0
2018-11-06T03:28:06.755Z,0
2018-11-06T03:29:06.724Z,0
2018-11-06T03:30:06.450Z,0
2018-11-06T03:31:06.728Z,0
2018-11-06T03:32:06.411Z,0
2018-11-06T03:33:06.384Z,0
2018-11-06T03:34:06.387Z,0
2018-11-06T03:35:06.356Z,0
2018-11-06T03:36:06.596Z,0
2018-11-06T03:37:06.591Z,0
2018-11-06T03:38:06.037Z,0
2018-11-06T03:39:06.089Z,0
2018-11-06T03:40:06.104Z,0
2018-11-06T03:41:06.201Z,0
2018-11-06T03:42:06.502Z,0
2018-11-06T03:43:06.363Z,0
2018-11-06T03:44:06.013Z,0
2018-11-06T03:45:06.624Z,0
2018-11-06T03:46:06.225Z,0
2018-11-06T03:47:06.205Z,0
2018-11-06T03:48:06.133Z,0
2018-11-06T03:49:06.099Z,0
2018-11-06T03:50:06.438Z,0
2018-11-06T03:51:06.055Z,0
2018-11-06T03:52:06.323Z,0
2018-11-06T03:53:05.761Z,0
2018-11-06T03:54:05.478Z,0
2018-11-06T03:55:06.297Z,0
2018-11-06T03:56:05.969Z,0
2018-11-06T03:57:05.962Z,0
2018-11-06T03:58:06.208Z,0
2018-11-06T03:59:05.617Z,0
2018-11-06T04:00:05.905Z,0
2018-11-06T04:01:06.136Z,0
2018-11-06T04:02:05.995Z,0
2018-11-06T04:03:05.875Z,0
2018-11-06T04:04:05.931Z,0
2018-11-06T04:05:05.954Z,0
2018-11-06T04:06:05.250Z,0
2018-11-06T04:07:06.027Z,0
2018-11-06T04:08:05.491Z,0
2018-11-06T04:09:05.950Z,0
2018-11-06T04:10:05.446Z,0
2018-11-06T04:11:05.446Z,0
2018-11-06T04:12:06.009Z,0
2018-11-06T04:13:05.657Z,0
2018-11-06T04:14:05.903Z,0
2018-11-06T04:15:05.620Z,0
2018-11-06T04:16:05.876Z,0
2018-11-06T04:17:05.054Z,0
2018-11-06T04:18:05.636Z,0
2018-11-06T04:19:05.282Z,0
2018-11-06T04:20:05.002Z,0
2018-11-06T04:21:05.708Z,0
2018-11-06T04:22:05.749Z,0
2018-11-06T04:23:05.223Z,0
2018-11-06T04:24:04.929Z,0
2018-11-06T04:25:05.442Z,0
2018-11-06T04:26:05.417Z,0
2018-11-06T04:27:05.137Z,0
2018-11-06T04:28:05.378Z,0
2018-11-06T04:29:05.098Z,0
2018-11-06T04:30:05.614Z,0
2018-11-06T04:31:05.059Z,0
2018-11-06T04:32:05.587Z,0
2018-11-06T04:33:05.290Z,0
2018-11-06T04:34:05.004Z,0
2018-11-06T04:35:05.257Z,0
2018-11-06T04:36:04.711Z,0
2018-11-06T04:37:04.955Z,0
2018-11-06T04:38:04.929Z,0
2018-11-06T04:39:05.453Z,0
2018-11-06T04:40:04.897Z,0
2018-11-06T04:41:05.154Z,0
2018-11-06T04:42:05.393Z,0
2018-11-06T04:43:04.841Z,0
2018-11-06T04:44:05.356Z,0
2018-11-06T04:45:04.803Z,0
2018-11-06T04:46:05.327Z,0
2018-11-06T04:47:05.041Z,0
2018-11-06T04:48:04.479Z,0
2018-11-06T04:49:04.737Z,0
2018-11-06T04:50:04.983Z,0
2018-11-06T04:51:05.237Z,0
2018-11-06T04:52:04.679Z,0
2018-11-06T04:53:04.669Z,0
2018-11-06T04:54:04.641Z,0
2018-11-06T04:55:04.906Z,0
2018-11-06T04:56:04.879Z,0
2018-11-06T04:57:05.123Z,0
2018-11-06T04:58:04.830Z,0
2018-11-06T04:59:04.560Z,0
2018-11-06T05:00:04.547Z,0
2018-11-06T05:01:04.242Z,0
2018-11-06T05:02:04.670Z,0
2018-11-06T05:03:04.744Z,0
2018-11-06T05:04:04.723Z,0
2018-11-06T05:05:04.443Z,0
2018-11-06T05:06:04.951Z,0
2018-11-06T05:07:05.025Z,0
2018-11-06T05:08:04.915Z,0
2018-11-06T05:09:04.888Z,0
2018-11-06T05:10:04.619Z,0
2018-11-06T05:11:04.863Z,0
2018-11-06T05:12:04.574Z,0
2018-11-06T05:13:04.617Z,0
2018-11-06T05:14:04.612Z,0
2018-11-06T05:15:04.255Z,0
2018-11-06T05:16:04.510Z,0
2018-11-06T05:17:04.490Z,0
2018-11-06T05:18:04.462Z,0
2018-11-06T05:19:04.182Z,0
2018-11-06T05:20:04.435Z,0
2018-11-06T05:21:04.417Z,0
2018-11-06T05:22:04.135Z,0
2018-11-06T05:23:03.843Z,0
2018-11-06T05:24:04.356Z,0
2018-11-06T05:25:04.342Z,0
2018-11-06T05:26:04.062Z,0
2018-11-06T05:27:04.563Z,0
2018-11-06T05:28:04.284Z,0
2018-11-06T05:29:04.010Z,0
2018-11-06T05:30:04.258Z,0
2018-11-06T05:31:04.489Z,0
2018-11-06T05:32:04.468Z,0
2018-11-06T05:33:05.015Z,0
2018-11-06T05:34:04.183Z,0
2018-11-06T05:35:04.843Z,0
2018-11-06T05:36:04.402Z,0
2018-11-06T05:37:03.860Z,0
2018-11-06T05:38:04.363Z,0
2018-11-06T05:39:04.122Z,0
2018-11-06T05:40:04.072Z,0
2018-11-06T05:41:03.783Z,0
2018-11-06T05:42:04.032Z,0
2018-11-06T05:43:04.282Z,0
2018-11-06T05:44:04.278Z,0
2018-11-06T05:45:03.980Z,0
2018-11-06T05:46:04.218Z,0
2018-11-06T05:47:04.193Z,0
2018-11-06T05:48:04.183Z,0
2018-11-06T05:49:03.635Z,0
2018-11-06T05:50:03.625Z,0
2018-11-06T05:51:03.881Z,0
2018-11-06T05:52:03.582Z,0
2018-11-06T05:53:03.684Z,0
2018-11-06T05:54:03.546Z,0
2018-11-06T05:55:03.524Z,0
2018-11-06T05:56:03.764Z,0
2018-11-06T05:57:03.763Z,0
2018-11-06T05:58:03.998Z,0
2018-11-06T05:59:03.995Z,0
2018-11-06T06:00:03.979Z,4
2018-11-06T06:01:03.414Z,0
2018-11-06T06:02:03.388Z,0
2018-11-06T06:03:03.382Z,0
2018-11-06T06:04:03.623Z,4
2018-11-06T06:05:03.608Z,0
2018-11-06T06:06:03.322Z,4
2018-11-06T06:07:03.035Z,4
2018-11-06T06:08:03.807Z,4
2018-11-06T06:09:03.261Z,8
2018-11-06T06:10:03.508Z,8
2018-11-06T06:11:04.040Z,8
2018-11-06T06:12:03.488Z,8
2018-11-06T06:13:03.458Z,12
2018-11-06T06:14:03.703Z,12
2018-11-06T06:15:03.428Z,12
2018-11-06T06:16:03.673Z,16
2018-11-06T06:17:03.772Z,20
2018-11-06T06:18:03.097Z,24
2018-11-06T06:19:03.084Z,24
2018-11-06T06:20:03.328Z,32
2018-11-06T06:21:03.514Z,36
2018-11-06T06:22:03.550Z,40
2018-11-06T06:23:03.283Z,48
2018-11-06T06:24:03.262Z,56
2018-11-06T06:25:02.996Z,60
2018-11-06T06:26:03.509Z,68
2018-11-06T06:27:03.193Z,76
2018-11-06T06:28:03.200Z,80
2018-11-06T06:29:02.904Z,88
2018-11-06T06:30:02.890Z,96
2018-11-06T06:31:02.865Z,100
2018-11-06T06:32:02.842Z,104
2018-11-06T06:33:03.389Z,112
2018-11-06T06:34:02.817Z,116
2018-11-06T06:35:02.958Z,120
2018-11-06T06:36:03.348Z,128
2018-11-06T06:37:03.026Z,136
2018-11-06T06:38:03.019Z,144
2018-11-06T06:39:02.449Z,152
2018-11-06T06:40:03.255Z,156
2018-11-06T06:41:03.404Z,168
2018-11-06T06:42:02.932Z,176
2018-11-06T06:43:02.637Z,188
2018-11-06T06:44:02.363Z,192
2018-11-06T06:45:02.612Z,204
2018-11-06T06:46:02.599Z,220
2018-11-06T06:47:02.844Z,228
2018-11-06T06:48:02.816Z,240
2018-11-06T06:49:02.532Z,248
2018-11-06T06:50:02.782Z,264
2018-11-06T06:51:03.019Z,276
2018-11-06T06:52:03.017Z,292
2018-11-06T06:53:02.989Z,304
2018-11-06T06:54:03.372Z,316
2018-11-06T06:55:03.248Z,324
2018-11-06T06:56:02.933Z,332
2018-11-06T06:57:02.427Z,344
2018-11-06T06:58:02.642Z,356
2018-11-06T06:59:02.353Z,364
2018-11-06T07:00:02.592Z,384
2018-11-06T07:01:02.571Z,400
2018-11-06T07:02:02.568Z,428
2018-11-06T07:03:02.801Z,448
2018-11-06T07:04:02.251Z,472
2018-11-06T07:05:02.775Z,500
2018-11-06T07:06:02.221Z,532
2018-11-06T07:07:02.466Z,556
2018-11-06T07:08:02.448Z,584
2018-11-06T07:09:02.429Z,612
2018-11-06T07:10:02.150Z,644
2018-11-06T07:11:02.132Z,680
2018-11-06T07:12:02.112Z,712
2018-11-06T07:13:02.804Z,736
2018-11-06T07:14:02.070Z,768
2018-11-06T07:15:02.057Z,792
2018-11-06T07:16:02.032Z,812
2018-11-06T07:17:02.283Z,836
2018-11-06T07:18:02.276Z,852
2018-11-06T07:19:02.247Z,872
2018-11-06T07:20:02.497Z,888
2018-11-06T07:21:02.209Z,908
2018-11-06T07:22:02.193Z,928
2018-11-06T07:23:02.176Z,952
2018-11-06T07:24:02.161Z,972
2018-11-06T07:25:01.909Z,996
2018-11-06T07:26:02.132Z,1020
2018-11-06T07:27:02.100Z,1048
2018-11-06T07:28:02.359Z,1072
2018-11-06T07:29:01.964Z,1096
2018-11-06T07:30:01.790Z,1120
2018-11-06T07:31:02.032Z,1140
2018-11-06T07:32:01.757Z,1164
2018-11-06T07:33:01.991Z,1184
2018-11-06T07:34:01.969Z,1208
2018-11-06T07:35:02.801Z,1224
2018-11-06T07:36:02.590Z,1244
2018-11-06T07:37:01.919Z,1260
2018-11-06T07:38:01.371Z,1280
2018-11-06T07:39:01.362Z,1300
2018-11-06T07:40:01.866Z,1324
2018-11-06T07:41:02.714Z,1352
2018-11-06T07:42:02.097Z,1392
2018-11-06T07:43:01.815Z,1432
2018-11-06T07:44:01.792Z,1468
2018-11-06T07:45:01.252Z,1512
2018-11-06T07:46:02.018Z,1560
2018-11-06T07:47:01.470Z,1596
2018-11-06T07:48:01.476Z,1620
2018-11-06T07:49:01.981Z,1644
2018-11-06T07:50:02.523Z,1656
2018-11-06T07:51:01.137Z,1668
2018-11-06T07:52:01.912Z,1692
2018-11-06T07:53:01.632Z,1724
2018-11-06T07:54:01.611Z,1764
2018-11-06T07:55:01.598Z,1816
2018-11-06T07:56:02.078Z,1864
2018-11-06T07:57:01.561Z,1904
2018-11-06T07:58:01.549Z,1924
2018-11-06T07:59:00.992Z,1928
2018-11-06T08:00:01.242Z,1920
2018-11-06T08:01:01.231Z,1916
2018-11-06T08:02:01.479Z,1920
2018-11-06T08:03:01.189Z,1932
2018-11-06T08:04:01.178Z,1952
2018-11-06T08:05:01.149Z,1980
2018-11-06T08:06:01.425Z,2016
2018-11-06T08:07:01.119Z,2064
2018-11-06T08:08:01.642Z,2128
2018-11-06T08:09:01.359Z,2204
2018-11-06T08:10:01.599Z,2256
2018-11-06T08:11:01.315Z,2308
2018-11-06T08:12:01.286Z,2356
2018-11-06T08:13:01.011Z,2412
2018-11-06T08:14:00.999Z,2472
2018-11-06T08:15:01.486Z,2532
2018-11-06T08:16:01.485Z,2568
2018-11-06T08:17:01.217Z,2620
2018-11-06T08:18:01.648Z,2652
2018-11-06T08:19:00.913Z,2724
2018-11-06T08:20:01.426Z,2792
2018-11-06T08:21:01.878Z,2856
2018-11-06T08:22:01.394Z,2940
2018-11-06T08:23:01.104Z,2996
2018-11-06T08:24:00.955Z,3076
2018-11-06T08:25:01.066Z,3148
2018-11-06T08:26:01.319Z,3220
2018-11-06T08:27:01.311Z,3264
2018-11-06T08:28:01.261Z,3284
2018-11-06T08:29:00.998Z,3256
2018-11-06T08:30:01.250Z,3244
2018-11-06T08:31:01.611Z,3220
2018-11-06T08:32:03.905Z,3276
2018-11-06T08:33:00.659Z,3340
2018-11-06T08:34:00.917Z,3364
2018-11-06T08:35:00.898Z,3360
2018-11-06T08:36:01.165Z,3368
2018-11-06T08:37:01.580Z,3380
2018-11-06T08:38:00.594Z,3420
2018-11-06T08:39:00.573Z,3432
2018-11-06T08:40:00.560Z,3436
2018-11-06T08:41:00.806Z,3444
2018-11-06T08:42:00.518Z,3428
2018-11-06T08:43:00.768Z,3404
2018-11-06T08:44:00.790Z,3372
2018-11-06T08:45:01.065Z,3308
2018-11-06T08:46:00.179Z,3332
2018-11-06T08:47:00.174Z,3400
2018-11-06T08:48:00.953Z,3556
2018-11-06T08:49:00.670Z,3720
2018-11-06T08:50:00.651Z,3804
2018-11-06T08:51:00.632Z,3840
2018-11-06T08:52:00.879Z,3920
2018-11-06T08:53:00.869Z,3964
2018-11-06T08:54:00.576Z,3980
2018-11-06T08:55:00.294Z,3976
2018-11-06T08:56:00.562Z,3956
2018-11-06T08:57:00.538Z,3936
2018-11-06T08:58:00.775Z,3796
2018-11-06T08:59:00.500Z,3672
2018-11-06T09:00:00.243Z,3492
2018-11-06T09:01:00.505Z,3372
2018-11-06T09:02:00.964Z,3300
2018-11-06T09:02:59.906Z,3208
2018-11-06T09:04:00.432Z,2888
2018-11-06T09:05:00.139Z,2752
2018-11-06T09:06:00.125Z,2624
2018-11-06T09:07:00.106Z,2504
2018-11-06T09:08:00.069Z,2424
2018-11-06T09:09:00.680Z,2264
2018-11-06T09:10:00.598Z,2188
2018-11-06T09:11:00.310Z,2100
2018-11-06T09:12:00.574Z,2056
2018-11-06T09:13:00.542Z,2016
2018-11-06T09:13:59.993Z,1964
2018-11-06T09:15:00.243Z,1908
2018-11-06T09:16:00.220Z,1864
2018-11-06T09:17:00.759Z,1848
2018-11-06T09:18:00.455Z,1820
2018-11-06T09:19:00.171Z,1792
2018-11-06T09:19:59.903Z,1792
2018-11-06T09:21:00.154Z,1784
2018-11-06T09:22:00.133Z,1804
2018-11-06T09:22:59.854Z,1852
2018-11-06T09:23:59.843Z,1908
2018-11-06T09:25:00.347Z,1940
2018-11-06T09:26:00.337Z,2008
2018-11-06T09:26:59.534Z,2104
2018-11-06T09:27:59.776Z,2188
2018-11-06T09:29:00.021Z,2232
2018-11-06T09:30:00.015Z,2204
2018-11-06T09:31:00.589Z,2200
2018-11-06T09:32:00.292Z,2196
2018-11-06T09:33:00.342Z,2200
2018-11-06T09:34:00.216Z,2224
2018-11-06T09:34:59.960Z,2228
2018-11-06T09:35:59.907Z,2200
2018-11-06T09:36:59.642Z,2212
2018-11-06T09:37:59.885Z,2176
2018-11-06T09:39:00.229Z,2212
2018-11-06T09:39:59.853Z,2244
2018-11-06T09:41:00.185Z,2288
2018-11-06T09:41:59.819Z,2340
2018-11-06T09:42:59.813Z,2424
2018-11-06T09:43:59.524Z,2536
2018-11-06T09:44:59.886Z,2704
2018-11-06T09:46:00.028Z,2868
2018-11-06T09:46:59.225Z,3040
2018-11-06T09:47:59.724Z,3132
2018-11-06T09:48:59.708Z,3356
2018-11-06T09:49:59.703Z,3468
2018-11-06T09:50:59.681Z,3528
2018-11-06T09:51:59.746Z,3564
2018-11-06T09:52:59.925Z,3552
2018-11-06T09:53:59.372Z,3520
2018-11-06T09:54:59.629Z,3372
2018-11-06T09:55:59.886Z,3380
2018-11-06T09:56:59.608Z,3452
2018-11-06T09:57:59.854Z,3472
2018-11-06T09:58:59.575Z,3440
2018-11-06T09:59:59.559Z,3524
2018-11-06T10:00:59.533Z,4652
2018-11-06T10:01:59.261Z,3892
2018-11-06T10:02:59.501Z,3792
2018-11-06T10:03:59.225Z,3768
2018-11-06T10:04:59.491Z,3696
2018-11-06T10:05:59.211Z,3732
2018-11-06T10:07:00.035Z,3888
2018-11-06T10:07:59.754Z,4088
2018-11-06T10:08:59.425Z,4280
2018-11-06T10:09:59.692Z,4328
2018-11-06T10:10:59.394Z,4296
2018-11-06T10:11:59.114Z,4184
2018-11-06T10:12:59.619Z,4072
2018-11-06T10:13:58.824Z,4000
2018-11-06T10:14:59.111Z,3896
2018-11-06T10:15:59.586Z,3792
2018-11-06T10:16:58.774Z,3696
2018-11-06T10:17:59.026Z,3608
2018-11-06T10:18:59.278Z,3540
2018-11-06T10:19:59.533Z,3488
2018-11-06T10:20:59.455Z,3440
2018-11-06T10:21:59.239Z,3444
2018-11-06T10:22:59.478Z,3408
2018-11-06T10:23:59.210Z,3324
2018-11-06T10:24:59.206Z,3300
2018-11-06T10:25:59.431Z,3268
2018-11-06T10:26:59.443Z,3256
2018-11-06T10:27:58.890Z,3368
2018-11-06T10:28:58.607Z,3640
2018-11-06T10:29:58.863Z,3944
2018-11-06T10:30:59.897Z,4168
2018-11-06T10:31:58.570Z,4376
2018-11-06T10:32:59.349Z,4572
2018-11-06T10:33:58.810Z,4676
2018-11-06T10:34:59.318Z,4760
2018-11-06T10:35:59.045Z,4828
2018-11-06T10:36:59.305Z,4840
2018-11-06T10:37:59.441Z,4880
2018-11-06T10:38:59.211Z,5004
2018-11-06T10:39:58.982Z,5128
2018-11-06T10:40:58.968Z,5244
2018-11-06T10:41:59.211Z,5284
2018-11-06T10:42:58.949Z,5192
2018-11-06T10:43:58.934Z,5076
2018-11-06T10:44:58.648Z,4988
2018-11-06T10:45:58.904Z,4992
2018-11-06T10:46:59.170Z,4964
2018-11-06T10:47:58.618Z,5032
2018-11-06T10:48:58.855Z,5144
2018-11-06T10:49:58.869Z,5324
2018-11-06T10:50:59.100Z,5436
2018-11-06T10:51:59.701Z,5408
2018-11-06T10:52:58.553Z,5332
2018-11-06T10:53:58.796Z,5268
2018-11-06T10:54:59.041Z,5196
2018-11-06T10:55:58.769Z,5160
2018-11-06T10:56:59.013Z,5044
2018-11-06T10:57:58.922Z,4968
2018-11-06T10:58:58.728Z,4968
2018-11-06T10:59:58.726Z,5004
2018-11-06T11:00:58.711Z,5100
2018-11-06T11:01:58.699Z,5216
2018-11-06T11:02:58.964Z,5304
2018-11-06T11:03:58.690Z,5424
2018-11-06T11:04:58.395Z,5476
2018-11-06T11:05:58.915Z,5556
2018-11-06T11:06:58.624Z,5524
2018-11-06T11:07:58.361Z,5632
2018-11-06T11:08:58.603Z,5776
2018-11-06T11:09:58.856Z,5752
2018-11-06T11:10:58.844Z,5760
2018-11-06T11:11:58.299Z,5740
2018-11-06T11:12:58.281Z,5808
2018-11-06T11:13:58.278Z,5808
2018-11-06T11:14:58.534Z,5864
2018-11-06T11:15:58.532Z,5904
2018-11-06T11:16:58.496Z,5940
2018-11-06T11:17:58.742Z,6264
2018-11-06T11:18:58.479Z,6344
2018-11-06T11:19:58.239Z,6364
2018-11-06T11:20:58.455Z,6284
2018-11-06T11:21:58.451Z,6156
2018-11-06T11:22:58.697Z,5984
2018-11-06T11:23:58.673Z,5796
2018-11-06T11:24:58.405Z,5728
2018-11-06T11:25:58.705Z,5804
2018-11-06T11:26:58.386Z,5784
2018-11-06T11:27:58.424Z,5824
2018-11-06T11:28:58.624Z,5876
2018-11-06T11:29:58.088Z,5928
2018-11-06T11:30:58.549Z,5988
2018-11-06T11:31:58.504Z,6128
2018-11-06T11:32:58.044Z,6344
2018-11-06T11:33:58.483Z,6548
2018-11-06T11:34:58.279Z,6700
2018-11-06T11:35:58.565Z,6872
2018-11-06T11:36:58.258Z,7056
2018-11-06T11:37:58.411Z,7220
2018-11-06T11:38:58.532Z,7348
2018-11-06T11:39:58.493Z,7496
2018-11-06T11:40:58.475Z,7576
2018-11-06T11:41:58.220Z,7632
2018-11-06T11:42:58.471Z,7716
2018-11-06T11:43:58.178Z,7800
2018-11-06T11:44:58.175Z,7836
2018-11-06T11:45:58.744Z,7800
2018-11-06T11:46:58.432Z,7824
2018-11-06T11:47:58.129Z,7876
2018-11-06T11:48:58.134Z,7936
2018-11-06T11:49:57.856Z,8128
2018-11-06T11:50:57.579Z,8308
2018-11-06T11:51:58.120Z,8396
2018-11-06T11:52:58.091Z,8664
2018-11-06T11:53:57.830Z,8984
2018-11-06T11:54:58.049Z,9536
2018-11-06T11:55:57.785Z,8868
2018-11-06T11:56:58.053Z,8904
2018-11-06T11:57:58.025Z,9284
2018-11-06T11:58:58.017Z,9652
2018-11-06T11:59:58.121Z,9412
2018-11-06T12:00:57.990Z,9500
2018-11-06T12:01:57.994Z,9584
2018-11-06T12:02:58.188Z,9568
2018-11-06T12:03:57.733Z,9760
2018-11-06T12:04:58.315Z,10196
2018-11-06T12:05:57.709Z,10700
2018-11-06T12:06:57.667Z,10872
2018-11-06T12:07:57.939Z,11376
2018-11-06T12:08:58.212Z,12872
2018-11-06T12:09:57.931Z,12612
2018-11-06T12:10:57.629Z,12148
2018-11-06T12:11:57.877Z,12248
2018-11-06T12:12:57.343Z,11796
2018-11-06T12:13:57.882Z,12636
2018-11-06T12:14:57.852Z,12476
2018-11-06T12:15:58.129Z,11972
2018-11-06T12:16:57.569Z,12016
2018-11-06T12:17:58.050Z,11348
2018-11-06T12:18:57.849Z,12560
2018-11-06T12:19:58.128Z,12716
2018-11-06T12:20:57.554Z,13396
2018-11-06T12:21:58.008Z,13604
2018-11-06T12:22:57.810Z,12992
2018-11-06T12:23:58.138Z,13172
2018-11-06T12:24:58.521Z,12816
2018-11-06T12:25:58.052Z,12528
2018-11-06T12:26:58.009Z,12156
2018-11-06T12:27:57.736Z,11544
2018-11-06T12:28:57.725Z,11488
2018-11-06T12:29:57.497Z,12252
2018-11-06T12:30:57.465Z,13276
2018-11-06T12:31:57.713Z,13128
2018-11-06T12:32:57.441Z,13612
2018-11-06T12:33:57.965Z,13324
2018-11-06T12:34:58.209Z,13928
2018-11-06T12:35:57.936Z,15008
2018-11-06T12:36:58.303Z,14784
2018-11-06T12:37:57.696Z,14432
2018-11-06T12:38:57.116Z,13928
2018-11-06T12:39:57.907Z,13220
2018-11-06T12:40:57.621Z,12860
2018-11-06T12:41:57.096Z,11648
2018-11-06T12:42:58.153Z,11528
2018-11-06T12:43:57.629Z,10584
2018-11-06T12:44:57.609Z,10824
2018-11-06T12:45:57.856Z,11396
2018-11-06T12:46:57.364Z,12484
2018-11-06T12:47:57.839Z,13004
2018-11-06T12:48:57.041Z,14528
2018-11-06T12:49:57.316Z,13716
2018-11-06T12:50:57.549Z,14496
2018-11-06T12:51:57.278Z,14688
2018-11-06T12:52:57.532Z,14752
2018-11-06T12:53:57.536Z,15232
2018-11-06T12:54:57.548Z,14172
2018-11-06T12:55:57.261Z,14392
2018-11-06T12:56:56.987Z,12640
2018-11-06T12:57:57.790Z,12260
2018-11-06T12:58:57.255Z,13940
2018-11-06T12:59:57.233Z,13308
2018-11-06T13:00:56.961Z,12592
2018-11-06T13:01:57.485Z,12548
2018-11-06T13:02:57.483Z,12716
2018-11-06T13:03:57.480Z,12736
2018-11-06T13:04:57.537Z,12228
2018-11-06T13:05:57.914Z,12856
2018-11-06T13:06:57.721Z,13952
2018-11-06T13:07:57.707Z,13532
2018-11-06T13:08:57.173Z,14476
2018-11-06T13:09:57.369Z,14132
2018-11-06T13:10:57.432Z,13888
2018-11-06T13:11:56.896Z,13660
2018-11-06T13:12:57.672Z,14688
2018-11-06T13:13:57.428Z,13532
2018-11-06T13:14:59.252Z,13004
2018-11-06T13:15:57.878Z,11732
2018-11-06T13:16:57.236Z,11024
2018-11-06T13:17:57.640Z,10600
2018-11-06T13:18:57.513Z,10784
2018-11-06T13:19:57.114Z,11332
2018-11-06T13:20:57.092Z,11184
2018-11-06T13:21:57.358Z,10976
2018-11-06T13:22:57.086Z,12164
2018-11-06T13:23:57.343Z,13248
2018-11-06T13:24:57.335Z,12820
2018-11-06T13:25:57.527Z,12016
2018-11-06T13:26:57.649Z,11112
2018-11-06T13:27:57.078Z,10640
2018-11-06T13:28:57.585Z,11076
2018-11-06T13:29:57.573Z,11260
2018-11-06T13:30:57.037Z,11160
2018-11-06T13:31:57.559Z,10916
2018-11-06T13:32:57.039Z,10540
2018-11-06T13:33:57.551Z,9608
2018-11-06T13:34:57.024Z,9816
2018-11-06T13:35:57.270Z,8392
2018-11-06T13:36:57.004Z,7836
2018-11-06T13:37:57.533Z,7332
2018-11-06T13:38:57.291Z,7148
2018-11-06T13:39:57.281Z,7072
2018-11-06T13:40:57.307Z,7072
2018-11-06T13:41:57.719Z,6972
2018-11-06T13:42:57.746Z,6888
2018-11-06T13:43:58.967Z,6824
2018-11-06T13:44:59.144Z,6740
2018-11-06T13:45:56.790Z,6672
2018-11-06T13:46:57.637Z,6736
2018-11-06T13:47:57.475Z,6848
2018-11-06T13:48:56.954Z,6872
2018-11-06T13:49:56.922Z,6820
2018-11-06T13:50:56.920Z,6880
2018-11-06T13:51:57.485Z,6988
2018-11-06T13:52:57.455Z,7012
2018-11-06T13:53:56.902Z,6948
2018-11-06T13:54:57.167Z,7124